Piarco FIR Weather

TAPA 141700Z 10013KT 9999 SCT020 28/21 Q1019 NOSIG

TBPB 141700Z 09023KT 9999 SCT022 29/21 Q1016 NOSIG

TDPD 141500Z 16002KT 6000 -SHRA BKN014 BKN034 24/22 Q1020

TFFF 141700Z AUTO 11021KT 9999 FEW030 29/21 Q1017

TFFR 141700Z AUTO 09012KT 9999 FEW026 SCT032 BKN080 29/22 Q1018

TGPY 141700Z 09020KT 9999 FEW018 29/23 Q1016 NOSIG

TKPK 141700Z 08014KT 9999 SCT019 29/23 Q1019

TKPN 141700Z 09018KT 9999 SCT022 30/22 Q1019

TLPC 141700Z 10012G24KT 9999 BKN023 27/22 Q1017 NOSIG

TLPL 141700Z 09023KT 9999 SCT027 29/23 Q1017 NOSIG

TTCP 141700Z 10014KT 9999 FEW025 29/21 Q1016 NOSIG

TTPP 141700Z 10020KT 8000 -SHRA VCSH SCT016 28/23 Q1015 NOSIG

TVSV 152200Z 00000KT 9999 FEW022 SCT032 28/23 Q1014 NOSIG